Time;durP1;ratioP1;P1;durP2;ratioP2;P2;SDS_P1;SDS_P2;PMS_P1;PMS_P2;Temp;Humidity;BMP_temperature;BMP_pressure;BME280_temperature;BME280_humidity;BME280_pressure;Samples;Min_cycle;Max_cycle;Signal;HPM_P1;HPM_P2
2022/09/08 00:00:32;;;;;;;9.98;4.82;;;16.40;99.90;;;;;;4997800;28;20041;-72
2022/09/08 00:03:01;;;;;;;12.43;5.07;;;16.40;99.90;;;;;;5012247;28;20041;-72
2022/09/08 00:05:29;;;;;;;11.25;5.03;;;16.30;99.90;;;;;;5014739;28;20044;-72
2022/09/08 00:07:55;;;;;;;11.00;6.03;;;16.30;99.90;;;;;;4979234;28;20538;-73
2022/09/08 00:10:23;;;;;;;11.77;6.78;;;16.30;99.90;;;;;;5022438;28;20034;-72
2022/09/08 00:12:49;;;;;;;11.98;6.55;;;16.20;99.90;;;;;;5019977;28;20120;-72
2022/09/08 00:15:15;;;;;;;13.52;6.82;;;16.30;99.90;;;;;;5019136;28;20034;-73
2022/09/08 00:17:40;;;;;;;11.63;7.50;;;16.30;99.90;;;;;;5023688;28;20491;-73
2022/09/08 00:20:08;;;;;;;12.15;7.57;;;16.30;99.90;;;;;;5019406;28;20073;-73
2022/09/08 00:22:33;;;;;;;12.30;7.60;;;16.30;99.90;;;;;;5019384;28;20049;-73
2022/09/08 00:24:59;;;;;;;14.75;8.43;;;16.30;99.90;;;;;;5014529;28;20049;-73
2022/09/08 00:27:25;;;;;;;13.98;8.82;;;16.30;99.90;;;;;;5012907;28;20116;-73
2022/09/08 00:29:51;;;;;;;14.27;8.98;;;;;;;;;;5021094;28;20147;-72
2022/09/08 00:32:19;;;;;;;15.13;9.85;;;16.30;99.90;;;;;;5015639;28;20049;-72
2022/09/08 00:34:46;;;;;;;15.05;9.80;;;16.00;99.90;;;;;;5023196;28;20053;-73
2022/09/08 00:37:12;;;;;;;14.82;10.10;;;16.20;99.90;;;;;;5004750;28;20037;-72
2022/09/08 00:39:38;;;;;;;17.00;11.40;;;16.30;99.90;;;;;;5008768;28;20041;-72
2022/09/08 00:42:05;;;;;;;15.93;11.50;;;16.30;99.90;;;;;;5002806;28;20053;-73
2022/09/08 00:44:49;;;;;;;15.88;10.95;;;16.30;99.90;;;;;;5027174;28;20071;-73
2022/09/08 00:47:22;;;;;;;17.60;10.88;;;16.30;99.90;;;;;;5024410;28;20132;-72
2022/09/08 00:50:15;;;;;;;16.80;11.52;;;16.20;99.90;;;;;;5025275;28;20097;-72
2022/09/08 00:52:59;;;;;;;15.63;11.68;;;16.20;99.90;;;;;;5008709;28;20098;-72
2022/09/08 00:55:26;;;;;;;18.33;12.25;;;16.20;99.90;;;;;;5024449;28;20045;-73
2022/09/08 00:57:52;;;;;;;16.48;12.05;;;16.20;99.90;;;;;;5021133;28;20034;-72
2022/09/08 01:00:18;;;;;;;19.52;13.00;;;16.20;99.90;;;;;;5015407;28;20033;-71
2022/09/08 01:02:45;;;;;;;20.10;14.48;;;16.20;99.90;;;;;;5011030;28;20052;-72
2022/09/08 01:05:14;;;;;;;18.02;13.57;;;16.20;99.90;;;;;;4997293;28;20547;-72
2022/09/08 01:13:43;;;;;;;20.05;15.23;;;16.10;99.90;;;;;;5025442;28;20046;-72
2022/09/08 01:16:10;;;;;;;19.60;15.80;;;16.10;99.90;;;;;;5004662;28;20049;-72
2022/09/08 01:18:38;;;;;;;20.58;14.63;;;16.10;99.90;;;;;;5022925;28;20038;-73
2022/09/08 01:21:37;;;;;;;19.63;15.52;;;16.10;99.90;;;;;;5022945;28;20085;-72
2022/09/08 01:24:25;;;;;;;19.02;15.48;;;16.10;99.90;;;;;;4997993;28;20120;-72
2022/09/08 01:27:21;;;;;;;20.63;16.42;;;16.10;99.90;;;;;;5018748;28;20045;-72
2022/09/08 01:29:49;;;;;;;22.42;16.02;;;16.10;99.90;;;;;;4990755;28;20687;-73
2022/09/08 01:32:15;;;;;;;20.05;16.25;;;16.00;99.90;;;;;;4991159;28;20046;-73
2022/09/08 01:34:43;;;;;;;20.15;16.17;;;16.00;99.90;;;;;;5004195;28;20492;-72
2022/09/08 01:37:10;;;;;;;20.92;16.98;;;16.10;99.90;;;;;;5016747;28;20095;-72
2022/09/08 01:39:36;;;;;;;23.63;18.40;;;16.10;99.90;;;;;;5021027;28;20497;-73
2022/09/08 01:42:01;;;;;;;22.45;17.98;;;16.10;99.90;;;;;;4990381;28;20096;-72
2022/09/08 01:44:28;;;;;;;21.60;17.35;;;16.00;99.90;;;;;;4996393;28;20073;-73
2022/09/08 01:46:54;;;;;;;21.13;17.75;;;16.10;99.90;;;;;;5019712;28;20064;-72
2022/09/08 01:49:20;;;;;;;21.48;17.45;;;16.10;99.90;;;;;;5005090;28;20688;-72
2022/09/08 01:51:45;;;;;;;22.48;18.90;;;16.10;99.90;;;;;;5014867;28;20081;-72
2022/09/08 01:54:11;;;;;;;21.65;18.15;;;16.10;99.90;;;;;;5011501;28;20080;-72
2022/09/08 01:56:37;;;;;;;21.17;18.42;;;16.10;99.90;;;;;;5010878;28;20141;-73
2022/09/08 01:59:03;;;;;;;23.05;18.23;;;16.10;99.90;;;;;;5017704;28;20049;-72
2022/09/08 02:01:29;;;;;;;23.33;18.77;;;16.00;99.90;;;;;;5014947;28;20056;-72
2022/09/08 02:03:55;;;;;;;22.98;20.05;;;16.10;99.90;;;;;;5047619;28;20281;-72
2022/09/08 02:06:21;;;;;;;25.35;20.02;;;16.10;99.90;;;;;;5014325;28;21306;-72
2022/09/08 02:08:53;;;;;;;25.73;19.20;;;16.10;99.90;;;;;;5015378;28;20354;-71
2022/09/08 02:11:19;;;;;;;;;;;16.10;99.90;;;;;;4993662;28;20049;-73
2022/09/08 02:13:45;;;;;;;22.75;19.13;;;16.10;99.90;;;;;;5020713;28;20284;-72
2022/09/08 02:16:11;;;;;;;24.60;19.85;;;15.90;99.90;;;;;;4998707;28;20061;-72
2022/09/08 02:18:38;;;;;;;27.05;21.10;;;15.20;99.90;;;;;;4999880;28;20041;-72
2022/09/08 02:21:14;;;;;;;26.08;21.15;;;16.10;99.90;;;;;;5002734;28;20045;-72
2022/09/08 02:23:42;;;;;;;25.40;20.33;;;16.10;99.90;;;;;;5005822;28;20034;-73
2022/09/08 02:26:14;;;;;;;25.05;20.05;;;16.20;99.90;;;;;;5024902;28;20049;-74
2022/09/08 02:28:40;;;;;;;25.23;20.58;;;16.20;99.90;;;;;;4998888;28;20042;-73
2022/09/08 02:31:06;;;;;;;26.15;21.85;;;16.20;99.90;;;;;;5019309;28;20038;-73
2022/09/08 02:33:32;;;;;;;25.13;21.58;;;16.20;99.90;;;;;;5006082;28;20046;-72
2022/09/08 02:35:58;;;;;;;25.90;21.05;;;16.20;99.90;;;;;;4980271;28;20041;-73
2022/09/08 02:38:25;;;;;;;24.95;21.05;;;16.20;99.90;;;;;;5020552;28;20077;-72
2022/09/08 02:40:51;;;;;;;25.52;21.20;;;16.20;99.90;;;;;;5017900;28;20467;-73
2022/09/08 02:43:17;;;;;;;25.20;21.77;;;16.30;99.90;;;;;;5018681;28;20404;-73
2022/09/08 02:45:43;;;;;;;27.15;22.33;;;16.30;99.90;;;;;;5012504;28;20503;-72
2022/09/08 02:48:09;;;;;;;27.80;22.77;;;16.30;99.90;;;;;;5019234;28;20054;-73
2022/09/08 02:50:35;;;;;;;29.65;22.65;;;16.30;99.90;;;;;;5018862;28;20049;-72
2022/09/08 02:53:01;;;;;;;26.23;22.45;;;16.30;99.90;;;;;;4994558;28;20041;-72
2022/09/08 02:55:27;;;;;;;30.98;22.70;;;16.30;99.90;;;;;;5016419;28;21379;-73
2022/09/08 02:57:53;;;;;;;28.73;23.30;;;16.30;99.90;;;;;;5012008;28;20399;-73
2022/09/08 03:00:19;;;;;;;27.98;22.67;;;16.30;99.90;;;;;;5019351;28;20132;-73
2022/09/08 03:02:46;;;;;;;28.92;24.17;;;16.20;99.90;;;;;;5022568;28;20037;-72
2022/09/08 03:05:12;;;;;;;28.20;24.13;;;16.30;99.90;;;;;;4987200;28;20081;-72
2022/09/08 03:07:38;;;;;;;29.13;24.63;;;16.40;99.90;;;;;;5022721;28;20459;-72
2022/09/08 03:10:05;;;;;;;29.30;25.23;;;16.40;99.90;;;;;;4998856;28;20041;-73
2022/09/08 03:12:32;;;;;;;28.17;23.75;;;16.40;99.90;;;;;;5004659;28;20104;-72
2022/09/08 03:14:58;;;;;;;29.75;24.67;;;16.40;99.90;;;;;;5020291;28;20041;-73
2022/09/08 03:17:24;;;;;;;28.88;24.08;;;16.40;99.90;;;;;;5017369;28;20064;-72
2022/09/08 03:19:50;;;;;;;28.65;24.60;;;16.40;99.90;;;;;;5018557;28;20079;-72
2022/09/08 03:22:17;;;;;;;30.35;25.50;;;16.50;99.90;;;;;;5004593;28;20136;-73
2022/09/08 03:24:43;;;;;;;32.53;25.77;;;16.50;99.90;;;;;;4993511;28;20045;-73
2022/09/08 03:27:09;;;;;;;31.52;25.63;;;16.50;99.90;;;;;;4990162;28;20100;-72
2022/09/08 03:29:35;;;;;;;31.98;26.17;;;16.80;99.90;;;;;;5026026;28;20098;-73
2022/09/08 03:32:01;;;;;;;32.58;27.23;;;16.50;99.90;;;;;;5008445;28;20046;-73
2022/09/08 03:34:27;;;;;;;31.15;26.80;;;16.50;99.90;;;;;;5027069;28;20029;-72
2022/09/08 03:36:53;;;;;;;31.65;26.85;;;16.50;99.90;;;;;;5022392;28;20040;-72
2022/09/08 03:39:20;;;;;;;34.78;27.42;;;16.50;99.90;;;;;;4998574;28;20038;-72
2022/09/08 03:41:46;;;;;;;30.77;26.30;;;16.50;99.90;;;;;;5025464;28;20045;-73
2022/09/08 03:44:12;;;;;;;32.50;28.42;;;16.50;99.90;;;;;;5026072;28;20094;-73
2022/09/08 03:46:37;;;;;;;31.58;26.83;;;16.60;99.90;;;;;;5022806;28;20037;-72
2022/09/08 03:49:04;;;;;;;35.65;28.13;;;16.60;99.90;;;;;;5027742;28;20373;-73
2022/09/08 03:51:30;;;;;;;33.50;27.70;;;16.60;99.90;;;;;;5025607;28;20065;-72
2022/09/08 03:54:46;;;;;;;33.30;26.75;;;16.60;99.90;;;;;;5002173;28;20038;-73
2022/09/08 03:56:45;;;;;;;33.05;27.20;;;16.60;99.90;;;;;;5025686;28;20487;-73
2022/09/08 03:59:12;;;;;;;32.20;28.08;;;16.60;99.90;;;;;;5014374;28;20080;-72
2022/09/08 04:01:39;;;;;;;32.45;27.85;;;16.60;99.90;;;;;;5022683;28;20403;-72
2022/09/08 04:04:05;;;;;;;34.63;28.60;;;16.60;99.90;;;;;;5018764;28;20463;-72
2022/09/08 04:06:31;;;;;;;32.45;28.02;;;16.60;99.90;;;;;;5014267;28;20602;-72
2022/09/08 04:08:58;;;;;;;31.65;27.20;;;16.70;99.90;;;;;;5023779;28;20041;-72
2022/09/08 04:11:24;;;;;;;32.05;27.20;;;16.70;99.90;;;;;;4993108;28;20053;-72
2022/09/08 04:13:50;;;;;;;33.25;28.40;;;16.70;99.90;;;;;;5021092;28;20048;-72
2022/09/08 04:16:17;;;;;;;33.55;28.55;;;16.70;99.90;;;;;;5011535;28;20678;-73
2022/09/08 04:18:43;;;;;;;32.67;28.52;;;16.70;99.90;;;;;;5002636;28;20033;-73
2022/09/08 04:21:10;;;;;;;33.30;28.63;;;16.70;99.90;;;;;;5024824;28;20042;-73
2022/09/08 04:23:38;;;;;;;33.72;28.92;;;15.70;99.90;;;;;;5024392;28;20034;-73
2022/09/08 04:26:06;;;;;;;34.78;28.92;;;16.70;99.90;;;;;;5022233;28;20037;-72
2022/09/08 04:28:33;;;;;;;34.88;28.75;;;16.70;99.90;;;;;;4998437;28;20046;-73
2022/09/08 04:31:06;;;;;;;34.88;29.00;;;16.70;99.90;;;;;;5017374;28;20040;-73
2022/09/08 04:33:32;;;;;;;35.00;28.80;;;16.70;99.90;;;;;;5023970;28;20122;-73
2022/09/08 04:35:58;;;;;;;36.50;29.67;;;16.70;99.90;;;;;;5001451;28;20145;-72
2022/09/08 04:38:25;;;;;;;34.83;29.67;;;16.70;99.90;;;;;;4991968;28;20681;-73
2022/09/08 04:40:51;;;;;;;34.80;30.20;;;16.70;99.90;;;;;;5000269;28;20401;-72
2022/09/08 04:43:16;;;;;;;36.88;29.42;;;16.70;99.90;;;;;;5005823;28;20050;-72
2022/09/08 04:45:42;;;;;;;36.35;30.27;;;16.70;99.90;;;;;;5015431;28;20072;-73
2022/09/08 04:48:08;;;;;;;34.80;29.70;;;16.70;99.90;;;;;;5020890;28;20041;-73
2022/09/08 04:50:34;;;;;;;36.00;29.95;;;;;;;;;;5018042;28;20041;-72
2022/09/08 04:53:00;;;;;;;36.33;28.83;;;16.70;99.90;;;;;;5019640;28;20046;-72
2022/09/08 04:55:25;;;;;;;34.38;28.67;;;16.70;99.90;;;;;;5019188;28;20037;-73
2022/09/08 04:57:51;;;;;;;34.58;29.38;;;16.70;99.90;;;;;;5030435;28;20098;-72
2022/09/08 05:00:18;;;;;;;35.17;29.48;;;16.70;99.90;;;;;;4976973;28;20053;-72
2022/09/08 05:02:46;;;;;;;34.85;29.20;;;16.70;99.90;;;;;;5016649;28;20069;-72
2022/09/08 05:05:11;;;;;;;35.05;29.67;;;16.70;99.90;;;;;;5020382;28;20053;-72
2022/09/08 05:07:37;;;;;;;37.90;30.90;;;17.10;99.90;;;;;;5007502;28;20381;-74
2022/09/08 05:10:04;;;;;;;38.17;30.92;;;16.70;99.90;;;;;;4991367;28;20135;-71
2022/09/08 05:12:29;;;;;;;38.53;31.67;;;16.70;99.90;;;;;;5014567;28;20038;-73
2022/09/08 05:14:55;;;;;;;37.08;31.05;;;16.70;99.90;;;;;;5019491;28;20514;-72
2022/09/08 05:17:21;;;;;;;39.65;31.08;;;16.70;99.90;;;;;;5015629;28;20125;-73
2022/09/08 05:19:47;;;;;;;38.97;33.05;;;16.70;99.90;;;;;;5012384;28;20046;-73
2022/09/08 05:22:13;;;;;;;37.15;31.02;;;16.70;99.90;;;;;;5000322;28;20052;-72
2022/09/08 05:24:38;;;;;;;35.65;31.20;;;16.70;99.90;;;;;;5008608;28;20050;-73
2022/09/08 05:27:04;;;;;;;39.28;31.15;;;16.70;99.90;;;;;;5004691;28;20428;-73
2022/09/08 05:29:30;;;;;;;39.55;32.83;;;16.70;99.90;;;;;;5010063;28;20050;-73
2022/09/08 05:31:56;;;;;;;40.28;32.90;;;16.70;99.90;;;;;;5011184;28;20117;-72
2022/09/08 05:34:21;;;;;;;38.42;32.83;;;16.80;99.90;;;;;;4993901;28;20044;-73
2022/09/08 05:36:47;;;;;;;37.28;32.33;;;16.80;99.90;;;;;;4990056;28;20030;-72
2022/09/08 05:39:13;;;;;;;36.92;31.50;;;16.80;99.90;;;;;;4994133;28;20071;-73
2022/09/08 05:41:39;;;;;;;39.05;33.30;;;16.80;99.90;;;;;;5012769;28;20295;-73
2022/09/08 05:44:06;;;;;;;37.50;30.95;;;16.80;99.90;;;;;;4993383;28;20057;-73
2022/09/08 05:46:32;;;;;;;37.50;32.22;;;16.80;99.90;;;;;;5016535;28;20041;-73
2022/09/08 05:48:59;;;;;;;41.92;32.45;;;16.90;99.90;;;;;;5022520;28;20029;-73
2022/09/08 05:51:26;;;;;;;38.33;31.40;;;16.90;99.90;;;;;;5023397;28;20564;-73
2022/09/08 05:53:51;;;;;;;36.58;31.05;;;16.90;99.90;;;;;;5009960;28;21069;-72
2022/09/08 05:56:18;;;;;;;37.88;31.20;;;17.00;99.90;;;;;;5023403;28;20078;-73
2022/09/08 05:58:50;;;;;;;37.13;31.80;;;17.00;99.90;;;;;;5014669;28;20524;-72
2022/09/08 06:01:16;;;;;;;35.42;29.40;;;17.00;99.90;;;;;;4992411;28;20542;-73
2022/09/08 06:03:41;;;;;;;35.97;31.20;;;18.20;99.90;;;;;;4991573;28;20037;-72
2022/09/08 06:06:09;;;;;;;37.17;31.67;;;17.20;99.90;;;;;;5018926;28;20043;-73
2022/09/08 06:08:38;;;;;;;38.40;31.00;;;17.10;99.90;;;;;;5021705;28;20104;-72
2022/09/08 06:11:04;;;;;;;38.55;31.70;;;17.10;99.90;;;;;;5023150;28;20075;-73
2022/09/08 06:13:31;;;;;;;38.58;32.90;;;17.10;99.90;;;;;;4993328;28;20518;-72
2022/09/08 06:16:04;;;;;;;39.08;32.53;;;17.10;99.90;;;;;;5015236;28;20034;-72
2022/09/08 06:18:35;;;;;;;40.30;32.75;;;17.10;99.90;;;;;;5014049;28;20038;-72
2022/09/08 06:21:08;;;;;;;39.53;33.70;;;18.50;99.90;;;;;;5013959;28;20033;-72
2022/09/08 06:23:34;;;;;;;;;;;17.10;99.90;;;;;;5012730;28;20037;-73
2022/09/08 06:26:16;;;;;;;36.47;31.83;;;17.10;99.90;;;;;;5017856;28;19928;-72
2022/09/08 06:29:04;;;;;;;38.25;32.05;;;17.10;99.90;;;;;;5011899;28;20440;-73
2022/09/08 06:31:42;;;;;;;37.58;32.05;;;17.10;99.90;;;;;;5017950;28;20053;-72
2022/09/08 06:34:20;;;;;;;36.63;30.67;;;17.10;99.90;;;;;;5010014;28;20053;-72
2022/09/08 06:36:50;;;;;;;40.85;33.85;;;17.10;99.90;;;;;;5014653;28;20038;-72
2022/09/08 06:39:31;;;;;;;39.55;33.42;;;17.10;99.90;;;;;;5017727;28;20059;-72
2022/09/08 06:42:18;;;;;;;40.28;33.83;;;17.10;99.90;;;;;;5012607;28;20045;-72
2022/09/08 06:44:47;;;;;;;42.60;33.67;;;17.10;99.90;;;;;;5009555;28;20056;-72
2022/09/08 06:47:26;;;;;;;40.53;34.05;;;17.10;99.90;;;;;;5016771;28;20034;-72
2022/09/08 06:49:52;;;;;;;39.17;33.97;;;17.20;99.90;;;;;;5012468;28;20041;-72
2022/09/08 06:52:23;;;;;;;43.33;33.85;;;17.20;99.90;;;;;;5014790;28;20045;-75
2022/09/08 06:55:02;;;;;;;38.83;32.00;;;17.20;99.90;;;;;;5021320;28;20425;-71
2022/09/08 06:57:47;;;;;;;38.38;32.67;;;17.20;99.90;;;;;;5018453;28;20045;-72
2022/09/08 07:00:22;;;;;;;39.05;33.53;;;17.30;99.90;;;;;;5011568;28;20040;-74
2022/09/08 07:03:11;;;;;;;38.75;32.45;;;17.30;99.90;;;;;;5019851;28;20070;-72
2022/09/08 07:05:57;;;;;;;41.38;33.45;;;17.30;99.90;;;;;;5023971;28;20547;-72
2022/09/08 07:08:48;;;;;;;36.78;32.38;;;17.30;99.90;;;;;;4998494;28;20123;-72
2022/09/08 07:11:32;;;;;;;40.28;32.28;;;17.30;99.90;;;;;;5011854;28;20048;-72
2022/09/08 07:14:26;;;;;;;37.22;32.03;;;17.30;99.90;;;;;;5020292;28;20204;-72
2022/09/08 07:17:04;;;;;;;35.30;31.27;;;17.30;99.90;;;;;;5015973;28;20128;-73
2022/09/08 07:19:38;;;;;;;35.92;31.05;;;17.30;99.90;;;;;;5012048;28;20576;-72
2022/09/08 07:22:28;;;;;;;38.35;32.42;;;17.30;99.90;;;;;;5025857;28;20120;-73
2022/09/08 07:25:09;;;;;;;40.75;32.70;;;16.40;99.90;;;;;;5013368;28;20033;-72
2022/09/08 07:27:37;;;;;;;38.17;31.52;;;17.40;99.90;;;;;;5019052;28;20593;-72
2022/09/08 07:30:04;;;;;;;39.05;32.08;;;17.40;99.90;;;;;;5022582;28;20072;-74
2022/09/08 07:32:34;;;;;;;38.47;32.63;;;17.30;99.90;;;;;;5007897;28;20060;-75
2022/09/08 07:35:12;;;;;;;36.55;31.85;;;17.40;99.90;;;;;;5015144;28;20194;-74
2022/09/08 07:37:50;;;;;;;37.42;32.28;;;16.80;99.90;;;;;;5017107;28;20103;-75
2022/09/08 07:40:17;;;;;;;37.72;32.22;;;17.30;99.90;;;;;;5010018;28;20100;-75
2022/09/08 07:42:53;;;;;;;38.97;32.35;;;17.40;99.90;;;;;;5017221;28;20045;-75
2022/09/08 07:45:19;;;;;;;37.20;32.20;;;17.40;99.90;;;;;;5021183;28;20174;-75
2022/09/08 07:48:02;;;;;;;37.10;31.23;;;17.40;99.90;;;;;;5027394;28;20053;-74
2022/09/08 07:50:54;;;;;;;;;;;17.30;99.90;;;;;;5004478;28;20954;-76
2022/09/08 07:53:35;;;;;;;37.58;32.30;;;17.30;99.90;;;;;;5024226;28;19921;-75
2022/09/08 07:56:17;;;;;;;37.30;32.00;;;17.30;99.90;;;;;;4996278;28;20516;-74
2022/09/08 07:59:08;;;;;;;37.17;32.33;;;17.30;99.90;;;;;;5019553;28;20045;-74
2022/09/08 08:01:44;;;;;;;38.08;31.88;;;17.70;99.90;;;;;;5015074;28;20462;-74
2022/09/08 08:04:38;;;;;;;39.70;33.65;;;17.30;99.90;;;;;;5015431;28;20041;-75
2022/09/08 08:07:13;;;;;;;39.38;31.77;;;17.30;99.90;;;;;;5015642;28;20509;-74
2022/09/08 08:10:18;;;;;;;36.85;30.75;;;17.30;99.90;;;;;;4999524;28;20056;-75
2022/09/08 08:13:07;;;;;;;35.22;30.42;;;17.30;99.90;;;;;;4995197;28;20443;-74
2022/09/08 08:15:45;;;;;;;33.33;28.38;;;17.40;99.90;;;;;;5025858;28;20175;-73
2022/09/08 08:18:20;;;;;;;31.48;27.33;;;17.40;99.90;;;;;;5029671;28;20056;-74
2022/09/08 08:21:00;;;;;;;33.25;27.23;;;17.40;99.90;;;;;;5051516;28;20455;-74
2022/09/08 08:24:08;;;;;;;30.95;25.50;;;17.40;99.90;;;;;;5009896;28;20037;-74
2022/09/08 08:26:34;;;;;;;33.13;26.23;;;17.40;99.90;;;;;;5016968;28;20469;-75
2022/09/08 08:29:58;;;;;;;29.65;25.42;;;17.40;99.90;;;;;;5027209;28;20038;-74
2022/09/08 08:32:27;;;;;;;29.95;25.38;;;17.40;99.90;;;;;;4981151;28;20076;-74
2022/09/08 08:35:19;;;;;;;30.60;25.38;;;17.40;99.90;;;;;;5013451;28;20042;-74
2022/09/08 08:37:49;;;;;;;29.58;25.00;;;17.50;99.90;;;;;;5027105;28;20054;-75
2022/09/08 08:40:49;;;;;;;31.27;26.02;;;17.50;99.90;;;;;;5022510;28;20077;-73
2022/09/08 08:43:44;;;;;;;28.60;23.95;;;17.60;99.90;;;;;;5021195;28;20132;-74
2022/09/08 08:46:31;;;;;;;28.48;23.60;;;17.60;99.90;;;;;;5021757;28;20083;-73
2022/09/08 08:49:16;;;;;;;29.17;23.55;;;17.60;99.90;;;;;;5019572;28;20056;-73
2022/09/08 08:52:04;;;;;;;27.42;22.27;;;17.80;99.90;;;;;;5023803;28;20103;-73
2022/09/08 08:54:52;;;;;;;29.27;23.98;;;17.80;99.90;;;;;;4995685;28;20443;-73
2022/09/08 08:57:49;;;;;;;25.88;21.95;;;17.90;99.90;;;;;;5018430;28;20124;-72
2022/09/08 09:00:22;;;;;;;25.40;21.42;;;17.90;99.90;;;;;;4995132;28;20038;-73
2022/09/08 09:02:53;;;;;;;;;;;17.90;99.90;;;;;;5019279;28;20048;-72
2022/09/08 09:06:00;;;;;;;24.95;21.02;;;18.00;99.90;;;;;;5015215;28;20075;-71
2022/09/08 09:08:34;;;;;;;27.42;22.70;;;18.00;99.90;;;;;;4965630;28;20085;-72
2022/09/08 09:11:08;;;;;;;26.08;22.60;;;18.00;99.90;;;;;;5008243;28;20053;-71
2022/09/08 09:14:12;;;;;;;25.65;22.30;;;18.00;99.90;;;;;;5020442;28;20034;-71
2022/09/08 09:17:06;;;;;;;27.00;22.50;;;18.00;99.90;;;;;;4988411;28;20400;-72
2022/09/08 09:19:50;;;;;;;27.60;22.35;;;18.00;99.90;;;;;;5023130;28;20130;-72
2022/09/08 09:22:36;;;;;;;26.40;22.02;;;18.00;99.90;;;;;;5021657;28;20037;-71
2022/09/08 09:25:18;;;;;;;28.67;23.70;;;18.00;99.90;;;;;;5033755;28;20099;-73
2022/09/08 09:27:45;;;;;;;26.90;21.83;;;18.00;99.90;;;;;;5020254;28;20045;-72
2022/09/08 09:30:31;;;;;;;26.58;21.73;;;18.00;99.90;;;;;;5024381;28;20059;-71
2022/09/08 09:33:09;;;;;;;26.80;21.67;;;18.00;99.90;;;;;;5017171;28;20048;-72
2022/09/08 09:36:16;;;;;;;28.35;23.05;;;18.00;99.90;;;;;;5016407;28;20595;-73
2022/09/08 09:38:56;;;;;;;26.35;22.30;;;18.00;99.90;;;;;;5025943;28;20565;-74
2022/09/08 09:42:06;;;;;;;23.58;20.35;;;18.10;99.90;;;;;;5015548;28;20137;-73
2022/09/08 09:44:48;;;;;;;22.92;18.05;;;18.10;99.90;;;;;;5014214;28;20037;-73
2022/09/08 09:47:38;;;;;;;21.38;17.80;;;18.20;99.90;;;;;;5015524;28;20038;-72
2022/09/08 09:50:21;;;;;;;21.40;16.20;;;18.20;99.90;;;;;;4976004;28;20360;-72
2022/09/08 09:52:54;;;;;;;18.88;14.95;;;18.30;99.90;;;;;;5015947;28;20195;-73
2022/09/08 09:55:41;;;;;;;19.00;14.63;;;18.40;99.90;;;;;;4998315;28;20254;-72
2022/09/08 09:58:25;;;;;;;18.17;13.70;;;18.40;99.90;;;;;;5013434;28;20179;-71
2022/09/08 10:01:04;;;;;;;14.85;11.40;;;18.50;99.90;;;;;;5049039;28;20064;-72
2022/09/08 10:04:13;;;;;;;13.50;9.85;;;18.50;99.90;;;;;;5030027;28;20462;-72
2022/09/08 10:07:00;;;;;;;13.35;9.50;;;18.40;99.90;;;;;;5020613;28;20127;-73
2022/09/08 10:09:47;;;;;;;14.68;9.10;;;18.50;99.90;;;;;;5019521;28;20038;-72
2022/09/08 10:12:57;;;;;;;13.07;8.77;;;18.30;99.90;;;;;;5005512;28;20500;-72
2022/09/08 10:15:44;;;;;;;12.40;8.80;;;18.40;99.90;;;;;;5010137;28;20033;-72
2022/09/08 10:18:37;;;;;;;12.07;8.30;;;18.40;99.90;;;;;;5020026;28;20059;-71
2022/09/08 10:21:48;;;;;;;11.65;8.40;;;18.30;99.90;;;;;;5025523;28;20069;-71
2022/09/08 10:24:51;;;;;;;12.02;7.70;;;18.30;99.90;;;;;;5018420;28;20565;-72
2022/09/08 10:27:39;;;;;;;11.52;7.53;;;18.30;99.90;;;;;;5001967;28;20132;-72
2022/09/08 10:30:31;;;;;;;10.70;6.50;;;18.30;99.90;;;;;;5020391;28;20046;-72
2022/09/08 10:33:33;;;;;;;10.98;6.32;;;18.30;99.90;;;;;;5013936;28;20099;-72
2022/09/08 10:36:10;;;;;;;10.13;6.07;;;18.30;99.90;;;;;;5010192;28;20052;-72
2022/09/08 10:39:04;;;;;;;10.23;6.38;;;18.20;99.90;;;;;;5018607;28;20033;-72
2022/09/08 10:42:06;;;;;;;9.60;5.57;;;18.20;99.90;;;;;;5018045;28;20041;-72
2022/09/08 10:44:49;;;;;;;11.83;6.73;;;18.20;99.90;;;;;;5017545;28;20112;-72
2022/09/08 10:47:18;;;;;;;;;;;18.20;99.90;;;;;;5017992;28;20038;-72
2022/09/08 10:49:49;;;;;;;10.90;6.13;;;18.20;99.90;;;;;;5018871;28;19963;-74
2022/09/08 10:52:31;;;;;;;11.43;6.97;;;18.20;99.90;;;;;;5021379;28;20045;-73
2022/09/08 10:55:31;;;;;;;11.25;6.00;;;18.20;99.90;;;;;;5009579;28;20065;-73
2022/09/08 10:58:35;;;;;;;9.68;5.18;;;18.40;99.90;;;;;;4995901;28;20507;-73
2022/09/08 11:01:12;;;;;;;;;;;18.20;99.90;;;;;;5042697;28;20099;-73
2022/09/08 11:04:17;;;;;;;7.93;3.92;;;18.20;99.90;;;;;;5006432;28;19921;-73
2022/09/08 11:07:21;;;;;;;9.02;3.85;;;18.30;99.90;;;;;;5016594;28;20530;-74
2022/09/08 11:10:22;;;;;;;8.18;3.97;;;18.10;99.90;;;;;;5022149;28;20029;-74
2022/09/08 11:13:26;;;;;;;9.50;3.85;;;18.10;99.90;;;;;;5011398;28;20116;-74
2022/09/08 11:16:06;;;;;;;8.27;3.88;;;18.00;99.90;;;;;;5016966;28;20050;-73
2022/09/08 11:18:43;;;;;;;7.85;3.70;;;18.00;99.90;;;;;;5018573;28;20067;-74
2022/09/08 11:21:28;;;;;;;8.90;3.67;;;18.00;99.90;;;;;;5018670;28;20064;-73
2022/09/08 11:24:18;;;;;;;8.63;3.55;;;18.00;99.90;;;;;;5017471;28;20030;-73
2022/09/08 11:26:58;;;;;;;9.02;3.33;;;18.00;99.90;;;;;;5010993;28;20555;-76
2022/09/08 11:29:38;;;;;;;6.18;2.58;;;18.00;99.90;;;;;;5016066;28;20107;-73
2022/09/08 11:32:31;;;;;;;6.57;2.40;;;18.00;99.90;;;;;;5002065;28;20195;-74
2022/09/08 11:35:15;;;;;;;7.70;2.83;;;17.90;99.90;;;;;;5015115;28;20049;-73
2022/09/08 11:37:40;;;;;;;6.80;2.50;;;17.90;99.90;;;;;;5019629;28;20038;-74
2022/09/08 11:40:49;;;;;;;7.43;2.60;;;17.80;99.90;;;;;;5022146;28;20044;-74
2022/09/08 11:43:28;;;;;;;6.35;2.00;;;18.20;99.90;;;;;;5017129;28;20239;-75
2022/09/08 11:46:30;;;;;;;6.65;2.10;;;17.70;99.90;;;;;;5002610;28;20049;-74
2022/09/08 11:49:27;;;;;;;6.60;1.90;;;17.60;99.90;;;;;;5019208;28;20691;-74
2022/09/08 11:52:34;;;;;;;5.80;2.00;;;17.60;99.90;;;;;;5019278;28;21163;-73
2022/09/08 11:55:18;;;;;;;4.57;1.70;;;17.50;99.90;;;;;;5001835;28;20033;-74
2022/09/08 11:57:56;;;;;;;6.25;1.95;;;17.50;99.90;;;;;;5023608;28;20072;-74
2022/09/08 12:00:29;;;;;;;7.60;2.10;;;17.50;99.90;;;;;;5022363;28;20069;-74
2022/09/08 12:03:25;;;;;;;6.45;2.08;;;17.30;99.90;;;;;;5010704;28;20135;-73
2022/09/08 12:06:09;;;;;;;6.15;1.70;;;17.50;99.90;;;;;;5018437;28;20157;-73
2022/09/08 12:09:13;;;;;;;5.15;2.00;;;17.40;99.90;;;;;;5020661;28;20124;-73
2022/09/08 12:12:01;;;;;;;6.35;2.10;;;17.40;99.90;;;;;;5017581;28;20045;-74
2022/09/08 12:14:54;;;;;;;6.15;2.08;;;17.40;99.90;;;;;;5013423;28;20054;-73
2022/09/08 12:17:38;;;;;;;6.40;2.20;;;17.40;99.90;;;;;;5022459;28;20045;-74
2022/09/08 12:20:45;;;;;;;7.13;2.10;;;17.50;99.90;;;;;;5022668;28;20041;-73
2022/09/08 12:23:37;;;;;;;6.20;2.05;;;17.40;99.90;;;;;;5015882;28;20046;-73
2022/09/08 12:26:40;;;;;;;5.35;1.85;;;17.50;99.90;;;;;;5009769;28;20151;-74
2022/09/08 12:29:41;;;;;;;6.75;1.95;;;17.50;99.90;;;;;;5025039;28;20046;-73
2022/09/08 12:32:15;;;;;;;7.00;1.88;;;17.50;99.90;;;;;;5004735;28;20057;-72
2022/09/08 12:35:10;;;;;;;7.30;2.10;;;17.50;99.90;;;;;;5007236;28;20048;-71
2022/09/08 12:37:38;;;;;;;5.13;2.00;;;17.50;99.90;;;;;;4994319;28;20483;-74
2022/09/08 12:40:17;;;;;;;7.40;2.63;;;17.60;99.90;;;;;;5019925;28;20524;-72
2022/09/08 12:42:52;;;;;;;6.80;2.35;;;17.60;99.90;;;;;;5018433;28;20069;-72
2022/09/08 12:45:18;;;;;;;8.10;2.50;;;17.60;99.90;;;;;;5023427;28;20072;-72
2022/09/08 12:47:55;;;;;;;6.30;2.38;;;17.70;99.90;;;;;;5019335;28;20530;-72
2022/09/08 12:50:25;;;;;;;6.28;2.10;;;17.70;99.90;;;;;;5026751;28;20116;-72
2022/09/08 12:52:54;;;;;;;5.97;2.40;;;17.70;99.90;;;;;;5018256;28;20070;-72
2022/09/08 12:55:57;;;;;;;6.97;1.90;;;17.70;99.90;;;;;;5021103;28;20037;-72
2022/09/08 12:58:26;;;;;;;5.68;1.80;;;17.70;99.90;;;;;;5019007;28;20405;-72
2022/09/08 13:01:20;;;;;;;5.85;1.90;;;17.80;99.90;;;;;;5016492;28;20038;-71
2022/09/08 13:03:47;;;;;;;4.60;1.63;;;17.70;99.90;;;;;;5014046;28;20077;-70
2022/09/08 13:06:51;;;;;;;6.25;1.90;;;17.70;99.90;;;;;;5020367;28;20120;-71
2022/09/08 13:09:26;;;;;;;5.18;1.88;;;17.70;99.90;;;;;;5013599;28;20049;-72
2022/09/08 13:12:01;;;;;;;6.07;1.80;;;17.70;99.90;;;;;;5012553;28;20095;-71
2022/09/08 13:14:44;;;;;;;6.22;2.30;;;17.70;99.90;;;;;;5014284;28;20029;-71
2022/09/08 13:17:24;;;;;;;6.03;1.88;;;17.70;99.90;;;;;;5021942;28;20532;-72
2022/09/08 13:20:27;;;;;;;8.32;2.53;;;17.70;99.90;;;;;;5017272;28;20037;-71
2022/09/08 13:23:38;;;;;;;5.65;2.00;;;17.70;99.90;;;;;;5014479;28;20038;-72
2022/09/08 13:26:11;;;;;;;6.40;2.30;;;17.70;99.90;;;;;;5010295;28;20045;-71